Time;durP1;ratioP1;P1;durP2;ratioP2;P2;SDS_P1;SDS_P2;PMS_P1;PMS_P2;Temp;Humidity;BMP_temperature;BMP_pressure;BME280_temperature;BME280_humidity;BME280_pressure;Samples;Min_cycle;Max_cycle;Signal;HPM_P1;HPM_P2
2021/12/12 00:02:27;;;;;;;124.72;50.90;;;3.60;99.90;;;;;;5076863;28;20048;-68
2021/12/12 00:04:53;;;;;;;120.68;47.50;;;3.60;99.90;;;;;;5077071;28;20049;-67
2021/12/12 00:07:29;;;;;;;132.93;50.00;;;3.60;99.90;;;;;;5076705;28;20102;-67
2021/12/12 00:10:03;;;;;;;123.60;48.53;;;3.60;99.90;;;;;;5076771;28;20056;-66
2021/12/12 00:12:33;;;;;;;139.95;48.92;;;3.60;99.90;;;;;;5076618;28;20123;-68
2021/12/12 00:15:00;;;;;;;128.35;48.97;;;3.60;99.90;;;;;;5077216;28;20377;-67
2021/12/12 00:17:27;;;;;;;129.70;49.92;;;3.60;99.90;;;;;;5076674;28;20056;-67
2021/12/12 00:19:54;;;;;;;132.77;49.38;;;3.60;99.90;;;;;;5058863;28;20056;-66
2021/12/12 00:22:25;;;;;;;123.10;46.80;;;3.60;99.90;;;;;;5039498;28;20045;-67
2021/12/12 00:24:51;;;;;;;121.75;50.00;;;3.60;99.90;;;;;;5056330;28;20076;-68
2021/12/12 00:27:18;;;;;;;117.15;48.47;;;3.60;99.90;;;;;;5038881;28;20091;-67
2021/12/12 00:29:45;;;;;;;124.85;48.95;;;3.60;99.90;;;;;;5056156;28;20044;-66
2021/12/12 00:32:14;;;;;;;119.97;47.67;;;3.60;99.90;;;;;;5056337;28;20128;-68
2021/12/12 00:34:44;;;;;;;136.63;49.50;;;3.60;99.90;;;;;;5056041;28;20064;-68
2021/12/12 00:37:11;;;;;;;108.07;46.10;;;3.60;99.90;;;;;;5056161;28;20046;-67
2021/12/12 00:39:40;;;;;;;116.50;49.13;;;3.60;99.90;;;;;;5056391;28;20079;-68
2021/12/12 00:42:15;;;;;;;118.95;49.50;;;3.60;99.90;;;;;;5055881;28;20098;-66
2021/12/12 00:44:44;;;;;;;120.32;48.00;;;3.60;99.90;;;;;;5038328;28;20049;-67
2021/12/12 00:47:11;;;;;;;113.10;47.30;;;3.60;99.90;;;;;;5039242;28;20193;-66
2021/12/12 00:49:39;;;;;;;105.05;48.08;;;3.60;99.90;;;;;;5055121;28;20052;-66
2021/12/12 00:52:07;;;;;;;112.22;48.17;;;3.60;99.90;;;;;;5059470;28;20120;-66
2021/12/12 00:54:34;;;;;;;118.95;48.50;;;3.60;99.90;;;;;;5058692;28;20427;-66
2021/12/12 00:57:03;;;;;;;117.40;47.03;;;3.60;99.90;;;;;;5075847;28;20154;-67
2021/12/12 00:59:28;;;;;;;103.22;45.30;;;3.70;99.90;;;;;;5057732;28;20094;-67
2021/12/12 01:01:54;;;;;;;110.65;46.80;;;3.70;99.90;;;;;;5075723;28;20044;-67
2021/12/12 01:04:31;;;;;;;135.50;50.42;;;3.70;99.90;;;;;;5065845;28;20104;-66
2021/12/12 01:07:01;;;;;;;106.72;46.08;;;3.70;99.90;;;;;;5096132;28;20052;-67
2021/12/12 01:09:31;;;;;;;117.13;48.15;;;3.70;99.90;;;;;;5096110;28;20049;-67
2021/12/12 01:12:00;;;;;;;129.35;47.50;;;3.70;99.90;;;;;;5061176;28;20466;-67
2021/12/12 01:14:33;;;;;;;99.35;45.78;;;3.70;99.90;;;;;;5095770;28;20055;-67
2021/12/12 01:17:04;;;;;;;116.00;45.67;;;3.70;99.90;;;;;;5078007;28;20090;-67
2021/12/12 01:19:38;;;;;;;107.68;46.72;;;3.70;99.90;;;;;;5096025;28;20093;-67
2021/12/12 01:22:15;;;;;;;124.40;46.72;;;3.70;99.90;;;;;;5092230;28;20045;-66
2021/12/12 01:24:45;;;;;;;116.72;46.22;;;3.70;99.90;;;;;;5077277;28;20054;-68
2021/12/12 01:27:12;;;;;;;107.72;47.88;;;3.70;99.90;;;;;;5063603;28;20044;-66
2021/12/12 01:29:39;;;;;;;106.30;44.42;;;3.70;99.90;;;;;;5067768;28;20412;-67
2021/12/12 01:32:12;;;;;;;109.28;45.22;;;3.70;99.90;;;;;;5088602;28;20036;-68
2021/12/12 01:34:39;;;;;;;104.65;43.83;;;3.70;99.90;;;;;;5077119;28;20119;-69
2021/12/12 01:37:23;;;;;;;103.55;46.10;;;3.70;99.90;;;;;;5057612;28;20063;-66
2021/12/12 01:39:51;;;;;;;100.65;44.38;;;3.70;99.90;;;;;;5057467;28;20048;-66
2021/12/12 01:42:22;;;;;;;108.30;45.28;;;3.70;99.90;;;;;;5075351;28;20055;-68
2021/12/12 01:45:07;;;;;;;111.88;45.75;;;3.70;99.90;;;;;;5057525;28;20114;-67
2021/12/12 01:47:41;;;;;;;107.40;44.63;;;3.80;99.90;;;;;;5075021;28;20048;-66
2021/12/12 01:50:10;;;;;;;;;;;3.80;99.90;;;;;;5057361;28;20067;-68
2021/12/12 01:52:37;;;;;;;116.13;44.30;;;3.80;99.90;;;;;;5064473;28;19989;-68
2021/12/12 01:55:31;;;;;;;110.68;46.45;;;3.70;99.90;;;;;;5077284;28;20055;-67
2021/12/12 01:58:02;;;;;;;101.53;44.72;;;3.80;99.90;;;;;;5091709;28;20064;-65
2021/12/12 02:01:08;;;;;;;115.78;46.55;;;3.80;99.90;;;;;;5094649;28;20048;-67
2021/12/12 02:03:41;;;;;;;108.85;45.30;;;3.80;99.90;;;;;;5075333;28;20083;-66
2021/12/12 02:06:11;;;;;;;112.80;42.05;;;3.80;99.90;;;;;;5074720;28;20041;-67
2021/12/12 02:08:38;;;;;;;111.03;45.20;;;3.90;99.90;;;;;;5074650;28;20055;-68
2021/12/12 02:11:09;;;;;;;110.57;45.75;;;3.90;99.90;;;;;;5057649;28;20048;-68
2021/12/12 02:13:40;;;;;;;136.82;46.60;;;3.90;99.90;;;;;;5056233;28;20052;-68
2021/12/12 02:16:07;;;;;;;123.07;46.30;;;3.90;99.90;;;;;;5070743;28;20048;-67
2021/12/12 02:18:37;;;;;;;140.77;47.40;;;3.90;99.90;;;;;;5039990;28;20088;-67
2021/12/12 02:21:18;;;;;;;122.18;46.47;;;3.90;99.90;;;;;;5051532;28;20041;-68
2021/12/12 02:24:33;;;;;;;112.82;45.83;;;3.90;99.90;;;;;;5065326;28;20130;-67
2021/12/12 02:37:42;;;;;;;109.57;43.97;;;4.10;99.90;;;;;;5056651;28;20048;-68
2021/12/12 02:40:13;;;;;;;121.03;46.38;;;3.90;99.90;;;;;;5056955;28;20055;-66
2021/12/12 02:42:39;;;;;;;124.55;47.45;;;3.90;99.90;;;;;;5074871;28;20049;-67
2021/12/12 02:45:08;;;;;;;107.20;45.83;;;4.00;99.90;;;;;;5056645;28;20056;-66
2021/12/12 02:47:34;;;;;;;113.72;45.05;;;4.00;99.90;;;;;;5056790;28;20106;-67
2021/12/12 02:50:13;;;;;;;98.65;44.42;;;4.00;99.90;;;;;;5074376;28;20040;-67
2021/12/12 02:52:42;;;;;;;113.63;45.13;;;4.00;99.90;;;;;;5056241;28;20479;-68
2021/12/12 02:55:19;;;;;;;106.10;42.90;;;4.10;99.90;;;;;;5056401;28;20056;-67
2021/12/12 02:57:44;;;;;;;121.25;44.10;;;4.00;99.90;;;;;;5074232;28;20051;-66
2021/12/12 03:00:15;;;;;;;109.38;44.28;;;4.00;99.90;;;;;;5056521;28;20040;-66
2021/12/12 03:02:45;;;;;;;117.32;43.47;;;4.00;99.90;;;;;;5057084;28;20048;-66
2021/12/12 03:05:14;;;;;;;99.40;42.13;;;4.10;99.90;;;;;;5074697;28;20103;-67
2021/12/12 03:07:41;;;;;;;117.93;45.88;;;4.10;99.90;;;;;;5054717;28;20095;-67
2021/12/12 03:10:14;;;;;;;111.93;44.05;;;4.10;99.90;;;;;;5074469;28;20082;-67
2021/12/12 03:12:40;;;;;;;101.13;41.58;;;4.10;99.90;;;;;;5058917;28;20044;-66
2021/12/12 03:15:14;;;;;;;109.38;43.15;;;4.10;99.90;;;;;;5077819;28;20063;-68
2021/12/12 03:17:41;;;;;;;79.72;38.40;;;4.10;99.90;;;;;;5077631;28;20079;-67
2021/12/12 03:20:23;;;;;;;90.38;39.75;;;4.10;99.90;;;;;;5077782;28;20124;-66
2021/12/12 03:23:02;;;;;;;94.63;38.10;;;4.20;99.90;;;;;;5066425;28;20049;-65
2021/12/12 03:25:31;;;;;;;98.30;42.22;;;4.20;99.90;;;;;;5057420;28;20094;-65
2021/12/12 03:27:57;;;;;;;94.70;39.60;;;4.20;99.90;;;;;;5057543;28;20052;-67
2021/12/12 03:30:23;;;;;;;109.20;39.83;;;4.20;99.90;;;;;;5057500;28;20044;-67
2021/12/12 03:32:48;;;;;;;97.57;37.58;;;4.20;99.90;;;;;;5057339;28;20441;-67
2021/12/12 03:35:15;;;;;;;86.00;37.50;;;4.20;99.90;;;;;;5040074;28;20190;-67
2021/12/12 03:37:42;;;;;;;85.85;38.63;;;4.30;99.90;;;;;;5057448;28;20108;-66
2021/12/12 03:40:30;;;;;;;85.22;37.05;;;4.30;99.90;;;;;;5039469;28;20045;-67
2021/12/12 03:42:58;;;;;;;86.38;37.03;;;4.30;99.90;;;;;;5039438;28;20056;-68
2021/12/12 03:45:26;;;;;;;97.07;37.28;;;4.30;99.90;;;;;;5057531;28;20420;-66
2021/12/12 03:48:23;;;;;;;88.38;38.00;;;4.30;99.90;;;;;;5057266;28;20041;-67
2021/12/12 03:50:54;;;;;;;88.28;34.35;;;4.40;99.90;;;;;;5038582;28;20135;-68
2021/12/12 03:53:19;;;;;;;82.53;34.28;;;4.40;99.90;;;;;;5071666;28;20338;-67
2021/12/12 03:55:47;;;;;;;81.45;35.85;;;4.40;99.90;;;;;;5077097;28;20114;-68
2021/12/12 03:58:14;;;;;;;69.72;33.58;;;4.60;99.90;;;;;;5077274;28;20040;-67
2021/12/12 04:01:06;;;;;;;80.95;33.65;;;4.40;99.90;;;;;;5059494;28;20063;-65
2021/12/12 04:03:32;;;;;;;74.65;30.23;;;4.40;99.90;;;;;;5076611;28;20041;-66
2021/12/12 04:06:01;;;;;;;76.18;32.63;;;4.50;99.90;;;;;;5059182;28;20133;-67
2021/12/12 04:08:28;;;;;;;86.00;31.85;;;4.50;99.90;;;;;;5059627;28;20114;-66
2021/12/12 04:10:54;;;;;;;63.55;30.98;;;4.50;99.90;;;;;;5059387;28;20109;-66
2021/12/12 04:13:20;;;;;;;62.83;30.20;;;4.50;99.90;;;;;;5076579;28;20433;-65
2021/12/12 04:15:50;;;;;;;73.60;30.80;;;4.50;99.90;;;;;;5076541;28;20059;-67
2021/12/12 04:18:23;;;;;;;62.58;29.77;;;4.50;99.90;;;;;;5076545;28;20135;-67
2021/12/12 04:20:49;;;;;;;58.13;28.70;;;4.50;99.90;;;;;;5076998;28;20072;-68
2021/12/12 04:23:22;;;;;;;59.08;28.83;;;4.60;99.90;;;;;;5073027;28;20086;-68
2021/12/12 04:25:48;;;;;;;64.88;27.83;;;4.60;99.90;;;;;;5075998;28;20101;-66
2021/12/12 04:28:14;;;;;;;63.92;27.92;;;4.60;99.90;;;;;;5058838;28;20049;-67
2021/12/12 04:30:40;;;;;;;58.70;28.17;;;4.70;99.90;;;;;;5059206;28;20053;-68
2021/12/12 04:33:06;;;;;;;51.00;26.05;;;4.70;99.90;;;;;;5058683;28;20064;-66
2021/12/12 04:35:32;;;;;;;63.72;26.98;;;4.70;99.90;;;;;;5076229;28;20040;-67
2021/12/12 04:37:59;;;;;;;51.47;25.67;;;4.70;99.90;;;;;;5042282;28;20114;-65
2021/12/12 04:40:28;;;;;;;52.42;24.63;;;4.80;99.90;;;;;;5058319;28;20080;-65
2021/12/12 04:42:55;;;;;;;55.47;25.95;;;4.80;99.90;;;;;;5076465;28;20361;-66
2021/12/12 04:45:51;;;;;;;52.65;22.73;;;4.80;99.90;;;;;;5058260;28;20053;-68
2021/12/12 04:51:50;;;;;;;50.30;25.27;;;4.80;99.90;;;;;;5058669;28;20056;-67
2021/12/12 04:54:26;;;;;;;50.78;24.83;;;4.80;99.90;;;;;;4939969;29;20051;-66
2021/12/12 04:56:57;;;;;;;45.17;25.13;;;4.80;99.90;;;;;;5044280;28;20534;-67
2021/12/12 04:59:33;;;;;;;51.22;24.83;;;4.80;99.90;;;;;;5037733;28;20170;-68
2021/12/12 05:02:39;;;;;;;56.03;24.00;;;4.90;99.90;;;;;;5038337;28;20044;-66
2021/12/12 05:05:08;;;;;;;154.75;26.92;;;4.80;99.90;;;;;;4967948;28;20055;-65
2021/12/12 05:07:45;;;;;;;43.78;22.73;;;4.90;99.90;;;;;;5037733;28;20045;-67
2021/12/12 05:10:15;;;;;;;38.30;23.00;;;4.90;99.90;;;;;;5037845;28;20496;-65
2021/12/12 05:12:41;;;;;;;40.88;21.48;;;4.90;99.90;;;;;;5038296;28;20053;-65
2021/12/12 05:15:14;;;;;;;48.83;22.38;;;4.90;99.90;;;;;;5057479;28;20517;-66
2021/12/12 05:17:44;;;;;;;43.40;22.17;;;4.90;99.90;;;;;;5052404;28;20044;-67
2021/12/12 05:20:16;;;;;;;38.88;20.50;;;4.90;99.90;;;;;;5040858;28;20049;-66
2021/12/12 05:22:49;;;;;;;40.50;22.00;;;4.90;99.90;;;;;;5055175;28;20044;-65
2021/12/12 05:25:19;;;;;;;29.58;18.95;;;4.90;99.90;;;;;;5045959;28;20055;-69
2021/12/12 05:27:49;;;;;;;37.05;19.58;;;4.90;99.90;;;;;;5057877;28;20044;-65
2021/12/12 05:30:18;;;;;;;42.53;20.13;;;4.90;99.90;;;;;;5057739;28;20059;-66
2021/12/12 05:32:46;;;;;;;33.17;18.10;;;4.90;99.90;;;;;;5075065;28;20060;-66
2021/12/12 05:35:13;;;;;;;36.90;19.50;;;4.90;99.90;;;;;;5057011;28;20052;-66
2021/12/12 05:37:40;;;;;;;31.80;19.83;;;4.90;99.90;;;;;;5057686;28;20044;-66
2021/12/12 05:40:09;;;;;;;34.13;19.50;;;4.90;99.90;;;;;;5075235;28;20411;-68
2021/12/12 05:42:37;;;;;;;34.30;19.20;;;4.90;99.90;;;;;;5075140;28;20052;-67
2021/12/12 05:45:05;;;;;;;33.78;19.17;;;4.90;99.90;;;;;;5074311;28;20456;-67
2021/12/12 05:47:30;;;;;;;31.70;19.45;;;5.00;99.90;;;;;;5037209;28;20060;-65
2021/12/12 05:49:57;;;;;;;33.22;18.55;;;5.00;99.90;;;;;;5037590;28;20118;-67
2021/12/12 05:52:23;;;;;;;35.65;18.52;;;5.00;99.90;;;;;;5055072;28;20457;-68
2021/12/12 05:54:50;;;;;;;37.67;18.23;;;5.00;99.90;;;;;;5054564;28;20049;-68
2021/12/12 05:57:23;;;;;;;141.43;22.45;;;5.00;99.90;;;;;;5055029;28;20052;-67
2021/12/12 05:59:49;;;;;;;33.00;18.83;;;5.00;99.90;;;;;;5037437;28;20366;-67
2021/12/12 06:02:15;;;;;;;30.25;17.33;;;5.00;99.90;;;;;;5037170;28;20469;-68
2021/12/12 06:04:41;;;;;;;42.28;18.38;;;5.00;99.90;;;;;;5047801;28;20513;-66
2021/12/12 06:07:14;;;;;;;34.55;18.58;;;5.00;99.90;;;;;;5075138;28;20088;-67
2021/12/12 06:09:40;;;;;;;26.92;16.92;;;5.10;99.90;;;;;;5057383;28;20054;-66
2021/12/12 06:12:07;;;;;;;53.95;18.77;;;5.10;99.90;;;;;;5057339;28;20052;-68
2021/12/12 06:14:33;;;;;;;32.70;18.27;;;5.10;99.90;;;;;;5057132;28;20398;-67
2021/12/12 06:17:00;;;;;;;32.83;17.70;;;5.10;99.90;;;;;;5089962;28;20076;-66
2021/12/12 06:19:28;;;;;;;27.13;16.75;;;5.10;99.90;;;;;;5095053;28;20126;-66
2021/12/12 06:21:57;;;;;;;40.08;18.92;;;5.10;99.90;;;;;;5081514;28;20032;-67
2021/12/12 06:24:25;;;;;;;42.47;19.05;;;5.10;99.90;;;;;;5094740;28;20383;-66
2021/12/12 06:26:51;;;;;;;31.23;18.52;;;5.20;99.90;;;;;;5084824;28;20088;-67
2021/12/12 06:29:17;;;;;;;29.58;17.23;;;5.20;99.90;;;;;;5074545;28;20059;-65
2021/12/12 06:31:45;;;;;;;31.38;17.63;;;5.30;99.90;;;;;;5057114;28;20429;-67
2021/12/12 06:34:12;;;;;;;29.08;17.25;;;5.20;99.90;;;;;;5075129;28;20105;-66
2021/12/12 06:36:38;;;;;;;30.33;17.85;;;5.20;99.90;;;;;;5074538;28;20132;-66
2021/12/12 06:39:07;;;;;;;30.35;17.65;;;5.20;99.90;;;;;;5057165;28;20040;-68
2021/12/12 06:41:34;;;;;;;28.33;17.38;;;5.20;99.90;;;;;;5074686;28;20044;-67
2021/12/12 06:44:06;;;;;;;29.88;17.88;;;5.20;99.90;;;;;;5056446;28;20084;-66
2021/12/12 06:46:33;;;;;;;34.90;18.13;;;5.30;99.90;;;;;;5075316;28;20052;-65
2021/12/12 06:49:00;;;;;;;30.05;16.83;;;5.30;99.90;;;;;;5078272;28;20052;-65
2021/12/12 06:51:27;;;;;;;34.97;18.35;;;5.30;99.90;;;;;;5060842;28;20052;-67
2021/12/12 06:53:53;;;;;;;30.08;17.77;;;5.30;99.90;;;;;;5077840;28;20411;-67
2021/12/12 06:56:21;;;;;;;32.00;18.25;;;5.40;99.90;;;;;;5078470;28;20048;-65
2021/12/12 06:58:49;;;;;;;30.92;17.63;;;5.30;99.90;;;;;;5078309;28;20071;-66
2021/12/12 07:01:20;;;;;;;32.92;19.08;;;5.40;99.90;;;;;;5060588;28;20492;-67
2021/12/12 07:03:48;;;;;;;35.38;17.63;;;5.40;99.90;;;;;;5056925;28;20132;-65
2021/12/12 07:06:18;;;;;;;28.25;16.55;;;5.40;99.90;;;;;;5057354;28;20457;-68
2021/12/12 07:08:44;;;;;;;31.10;17.77;;;5.40;99.90;;;;;;5077862;28;20053;-65
2021/12/12 07:11:10;;;;;;;26.90;16.65;;;5.70;99.90;;;;;;5078185;28;20100;-67
2021/12/12 07:13:36;;;;;;;45.05;16.83;;;5.50;99.90;;;;;;5077677;28;20067;-66
2021/12/12 07:16:04;;;;;;;27.02;16.77;;;5.40;99.90;;;;;;5060452;28;20040;-67
2021/12/12 07:18:32;;;;;;;30.20;17.48;;;5.40;99.90;;;;;;5077792;28;20090;-66
2021/12/12 07:21:04;;;;;;;30.52;16.77;;;5.50;99.90;;;;;;5060211;28;20060;-66
2021/12/12 07:23:31;;;;;;;25.10;15.85;;;5.50;99.90;;;;;;5057307;28;20468;-65
2021/12/12 07:25:59;;;;;;;29.52;16.75;;;5.50;99.90;;;;;;5051704;28;20048;-66
2021/12/12 07:28:26;;;;;;;22.83;14.70;;;5.60;99.90;;;;;;5050576;28;20120;-66
2021/12/12 07:30:52;;;;;;;28.60;16.20;;;5.60;99.90;;;;;;5064977;28;20050;-66
2021/12/12 07:33:19;;;;;;;31.23;15.48;;;5.60;99.90;;;;;;5050204;28;20124;-68
2021/12/12 07:35:45;;;;;;;32.75;17.70;;;5.80;99.90;;;;;;5044585;28;20060;-67
2021/12/12 07:38:15;;;;;;;24.92;15.45;;;5.60;99.90;;;;;;5057236;28;20361;-66
2021/12/12 07:40:43;;;;;;;33.17;17.27;;;5.60;99.90;;;;;;5039803;28;20064;-67
2021/12/12 07:43:09;;;;;;;30.50;16.80;;;5.80;99.90;;;;;;5057273;28;20128;-67
2021/12/12 07:45:35;;;;;;;26.73;16.08;;;5.70;99.90;;;;;;5039789;28;20136;-67
2021/12/12 07:48:05;;;;;;;27.67;15.77;;;5.70;99.90;;;;;;5057135;28;20059;-66
2021/12/12 07:50:31;;;;;;;26.92;15.55;;;5.70;99.90;;;;;;5057119;28;20428;-65
2021/12/12 07:52:57;;;;;;;30.10;15.68;;;5.70;99.90;;;;;;5057944;28;20041;-66
2021/12/12 07:55:24;;;;;;;29.83;15.20;;;5.70;99.90;;;;;;5039646;28;20449;-68
2021/12/12 07:57:51;;;;;;;32.10;16.55;;;5.80;99.90;;;;;;5056736;28;20076;-66
2021/12/12 08:00:21;;;;;;;29.27;16.23;;;5.80;99.90;;;;;;5056917;28;20049;-65
2021/12/12 08:02:48;;;;;;;34.47;18.42;;;5.80;99.90;;;;;;5039439;28;20056;-67
2021/12/12 08:05:15;;;;;;;36.25;17.67;;;5.80;99.90;;;;;;5057573;28;20057;-66
2021/12/12 08:07:43;;;;;;;33.20;17.88;;;5.80;99.90;;;;;;5040012;28;20091;-66
2021/12/12 08:10:11;;;;;;;29.67;16.98;;;5.80;99.90;;;;;;5056891;28;20545;-67
2021/12/12 08:12:37;;;;;;;27.27;15.93;;;5.80;99.90;;;;;;5039373;28;20052;-68
2021/12/12 08:15:09;;;;;;;34.65;17.63;;;5.90;99.90;;;;;;5056979;28;20052;-67
2021/12/12 08:17:35;;;;;;;26.27;14.85;;;5.90;99.90;;;;;;5056744;28;20060;-67
2021/12/12 08:20:02;;;;;;;37.97;18.15;;;5.90;99.90;;;;;;5056724;28;20088;-67
2021/12/12 08:22:28;;;;;;;36.78;18.70;;;5.90;99.90;;;;;;5050484;28;20056;-67
2021/12/12 08:24:59;;;;;;;37.08;17.80;;;6.00;99.90;;;;;;5058993;28;20052;-66
2021/12/12 08:27:26;;;;;;;36.40;17.77;;;6.00;99.90;;;;;;5059006;28;20168;-65
2021/12/12 08:29:52;;;;;;;39.60;16.98;;;6.00;99.90;;;;;;5076622;28;20051;-66
2021/12/12 08:32:18;;;;;;;37.75;17.27;;;6.00;99.90;;;;;;5041856;28;20049;-68
2021/12/12 08:34:43;;;;;;;38.85;18.08;;;6.00;99.90;;;;;;5038432;28;20100;-66
2021/12/12 08:37:09;;;;;;;37.55;18.25;;;6.00;99.90;;;;;;5056081;28;20061;-66
2021/12/12 08:39:35;;;;;;;35.80;17.63;;;6.10;99.90;;;;;;5056426;28;20048;-66
2021/12/12 08:42:05;;;;;;;36.22;17.95;;;6.10;99.90;;;;;;5038950;28;20060;-65
2021/12/12 08:44:33;;;;;;;31.55;16.83;;;6.10;99.90;;;;;;5056115;28;20041;-65
2021/12/12 08:47:00;;;;;;;35.00;17.50;;;6.20;99.90;;;;;;5056701;28;20087;-66
2021/12/12 08:49:29;;;;;;;40.53;18.75;;;6.10;99.90;;;;;;5055643;28;20438;-67
2021/12/12 08:52:01;;;;;;;41.67;18.77;;;6.20;99.90;;;;;;5039715;28;20053;-67
2021/12/12 08:54:28;;;;;;;34.20;17.88;;;6.20;99.90;;;;;;5038216;28;20426;-67
2021/12/12 08:57:45;;;;;;;42.78;18.77;;;6.30;99.90;;;;;;5038516;28;20051;-66
2021/12/12 09:00:15;;;;;;;45.60;20.23;;;6.30;99.90;;;;;;5055852;28;20131;-68
2021/12/12 09:02:41;;;;;;;43.97;20.55;;;6.30;99.90;;;;;;5055778;28;20443;-66
2021/12/12 09:05:13;;;;;;;46.03;20.08;;;6.30;99.90;;;;;;5052229;28;20058;-67
2021/12/12 09:07:44;;;;;;;40.55;19.17;;;6.50;99.90;;;;;;5075890;28;20052;-68
2021/12/12 09:10:26;;;;;;;41.92;20.60;;;6.40;99.90;;;;;;5074884;28;20044;-65
2021/12/12 09:13:02;;;;;;;48.33;21.00;;;6.40;99.90;;;;;;5058092;28;20049;-67
2021/12/12 09:15:42;;;;;;;51.03;20.33;;;6.40;99.90;;;;;;5075646;28;20043;-68
2021/12/12 09:18:19;;;;;;;44.25;20.50;;;6.50;99.90;;;;;;5075485;28;20067;-65
2021/12/12 09:20:57;;;;;;;50.65;21.10;;;6.50;99.90;;;;;;5075333;28;20119;-63
2021/12/12 09:23:34;;;;;;;49.80;21.98;;;6.50;99.90;;;;;;5076153;28;20087;-65
2021/12/12 09:26:16;;;;;;;57.85;22.25;;;6.50;99.90;;;;;;5077650;28;20055;-66
2021/12/12 09:28:47;;;;;;;45.95;20.67;;;6.60;99.90;;;;;;5095420;28;20060;-66
2021/12/12 09:31:29;;;;;;;52.97;21.85;;;6.60;99.90;;;;;;5062320;28;20522;-67
2021/12/12 09:34:12;;;;;;;58.85;23.25;;;6.60;99.90;;;;;;5075450;28;20139;-67
2021/12/12 09:36:46;;;;;;;68.55;24.27;;;6.70;99.90;;;;;;5074854;28;20041;-68
2021/12/12 09:39:27;;;;;;;72.78;23.60;;;6.70;99.90;;;;;;5075447;28;20044;-64
2021/12/12 09:42:15;;;;;;;74.13;24.73;;;6.80;99.90;;;;;;5075147;28;20083;-63
2021/12/12 09:45:03;;;;;;;66.10;23.35;;;6.80;99.90;;;;;;5040683;28;20058;-65
2021/12/12 09:51:14;;;;;;;83.53;26.88;;;6.90;99.90;;;;;;5074901;28;20048;-65
2021/12/12 09:51:33;;;;;;;81.95;26.13;;;6.90;99.90;;;;;;5092407;28;20047;-64
2021/12/12 09:54:04;;;;;;;83.22;27.65;;;6.90;99.90;;;;;;5094843;28;20444;-62
2021/12/12 09:56:58;;;;;;;81.53;26.33;;;7.00;99.90;;;;;;5077874;28;20356;-63
2021/12/12 09:59:31;;;;;;;90.60;27.45;;;7.00;99.90;;;;;;5095346;28;20074;-64
2021/12/12 10:02:20;;;;;;;;;;;7.00;99.90;;;;;;5077339;28;20052;-63
2021/12/12 10:05:10;;;;;;;101.85;29.70;;;7.10;99.90;;;;;;5028544;28;20011;-64
2021/12/12 10:08:03;;;;;;;83.22;28.23;;;7.30;99.90;;;;;;5041146;28;20044;-65
2021/12/12 10:10:36;;;;;;;89.80;29.27;;;7.20;99.90;;;;;;5036799;28;20084;-65
2021/12/12 10:13:23;;;;;;;123.95;32.63;;;7.20;99.90;;;;;;5039978;28;20092;-66
2021/12/12 10:15:57;;;;;;;95.90;29.33;;;7.20;99.90;;;;;;5055009;28;20377;-66
2021/12/12 10:18:28;;;;;;;;;;;7.30;99.90;;;;;;5036959;28;20060;-68
2021/12/12 10:21:05;;;;;;;97.10;29.42;;;7.30;99.90;;;;;;5040654;28;19921;-67
2021/12/12 10:23:55;;;;;;;89.72;29.52;;;7.30;99.90;;;;;;5061015;28;20045;-67
2021/12/12 10:26:31;;;;;;;88.88;29.63;;;7.40;99.90;;;;;;5072730;28;20063;-65
2021/12/12 10:29:13;;;;;;;98.50;30.63;;;7.50;99.90;;;;;;5064398;28;20092;-67
2021/12/12 10:31:46;;;;;;;102.03;31.20;;;7.50;99.90;;;;;;5050228;28;20049;-67
2021/12/12 10:34:20;;;;;;;96.18;29.63;;;7.50;99.90;;;;;;5061113;28;20048;-67
2021/12/12 10:37:13;;;;;;;111.00;32.03;;;7.60;99.90;;;;;;5061253;28;20060;-68
2021/12/12 10:39:40;;;;;;;83.07;29.00;;;7.60;99.90;;;;;;5015922;28;20053;-67
2021/12/12 10:42:15;;;;;;;87.05;29.00;;;7.60;99.90;;;;;;5016192;28;20119;-67
2021/12/12 10:44:46;;;;;;;99.90;30.52;;;7.60;99.90;;;;;;5000065;28;20053;-66
2021/12/12 10:47:13;;;;;;;73.47;27.67;;;7.70;99.90;;;;;;5016243;28;20050;-65
2021/12/12 10:50:02;;;;;;;82.47;28.13;;;7.70;99.90;;;;;;5013836;28;20062;-68
2021/12/12 10:52:38;;;;;;;87.82;28.65;;;7.70;99.90;;;;;;4992228;28;20153;-65
2021/12/12 10:55:10;;;;;;;139.23;33.22;;;7.80;99.90;;;;;;5016196;28;20058;-67
2021/12/12 10:57:38;;;;;;;113.80;31.65;;;7.80;99.90;;;;;;4999230;28;20045;-65
2021/12/12 11:00:15;;;;;;;94.97;29.42;;;7.80;99.90;;;;;;5015881;28;20053;-66
2021/12/12 11:02:50;;;;;;;76.30;27.90;;;7.80;99.90;;;;;;5015577;28;20073;-67
2021/12/12 11:05:26;;;;;;;78.32;27.10;;;7.90;99.90;;;;;;5028701;28;20065;-67
2021/12/12 11:08:14;;;;;;;104.90;29.10;;;7.90;99.90;;;;;;5035336;28;20049;-66
2021/12/12 11:10:41;;;;;;;85.53;28.13;;;7.90;99.90;;;;;;5050616;28;20135;-67
2021/12/12 11:13:17;;;;;;;86.40;29.05;;;7.90;99.90;;;;;;5097570;28;20475;-66
2021/12/12 11:16:05;;;;;;;103.30;28.80;;;8.00;99.90;;;;;;5080794;28;20048;-66
2021/12/12 11:18:39;;;;;;;77.82;27.70;;;8.00;99.90;;;;;;5098022;28;20036;-68
2021/12/12 11:21:44;;;;;;;71.28;27.38;;;8.00;99.90;;;;;;5064754;28;20372;-67
2021/12/12 11:24:19;;;;;;;71.28;25.90;;;8.10;99.90;;;;;;5056848;28;20423;-67
2021/12/12 11:26:58;;;;;;;65.30;25.70;;;8.10;99.90;;;;;;5076221;28;20492;-66
2021/12/12 11:29:41;;;;;;;72.15;25.70;;;8.10;99.90;;;;;;5067805;28;20058;-66
2021/12/12 11:32:12;;;;;;;74.70;26.35;;;8.20;99.90;;;;;;5095698;28;20048;-67
2021/12/12 11:34:44;;;;;;;69.88;26.80;;;8.10;99.90;;;;;;5097779;28;20361;-67
2021/12/12 11:37:34;;;;;;;71.05;25.73;;;8.20;99.90;;;;;;5097154;28;20582;-64
2021/12/12 11:40:13;;;;;;;68.22;25.33;;;8.20;99.90;;;;;;5082931;28;20040;-63
2021/12/12 11:43:03;;;;;;;67.65;24.13;;;8.30;99.90;;;;;;5094380;28;20059;-64
2021/12/12 11:45:42;;;;;;;67.78;25.05;;;8.20;99.90;;;;;;5076964;28;20134;-64
2021/12/12 11:48:13;;;;;;;73.82;25.80;;;8.30;99.90;;;;;;5085047;28;20373;-63
2021/12/12 11:51:07;;;;;;;69.72;24.70;;;8.30;99.90;;;;;;5096409;28;20055;-63
2021/12/12 11:53:44;;;;;;;63.55;23.85;;;8.30;99.90;;;;;;5080171;28;20044;-67
2021/12/12 11:56:13;;;;;;;62.47;23.50;;;8.30;99.90;;;;;;5093154;28;20036;-66
2021/12/12 11:58:46;;;;;;;52.85;22.05;;;8.30;99.90;;;;;;5076940;28;20119;-64
2021/12/12 12:01:46;;;;;;;59.85;22.45;;;8.30;99.90;;;;;;5076659;28;20433;-66
2021/12/12 12:04:21;;;;;;;67.90;22.65;;;8.30;99.90;;;;;;5016811;28;20045;-66
2021/12/12 12:07:25;;;;;;;63.95;22.70;;;8.40;99.90;;;;;;5056590;28;20146;-66
2021/12/12 12:10:05;;;;;;;74.13;24.05;;;8.40;99.90;;;;;;5043950;28;20377;-65
2021/12/12 12:12:41;;;;;;;64.90;21.95;;;8.40;99.90;;;;;;5074765;28;20052;-65
2021/12/12 12:15:37;;;;;;;70.38;24.42;;;8.50;99.90;;;;;;5046986;28;20106;-67
2021/12/12 12:18:14;;;;;;;71.03;24.58;;;8.50;99.90;;;;;;5053181;28;20056;-66
2021/12/12 12:20:53;;;;;;;70.82;24.20;;;8.50;99.90;;;;;;5069453;28;20049;-65
2021/12/12 12:23:47;;;;;;;54.78;22.92;;;8.60;99.90;;;;;;5056353;28;20131;-65
2021/12/12 12:29:26;;;;;;;70.50;24.90;;;8.70;99.90;;;;;;5065108;28;20433;-65
2021/12/12 12:32:04;;;;;;;49.30;21.35;;;8.70;99.90;;;;;;5076007;28;20083;-65
2021/12/12 12:35:00;;;;;;;59.47;22.60;;;8.80;99.90;;;;;;5057894;28;20051;-65
2021/12/12 12:38:03;;;;;;;70.15;22.65;;;8.80;99.90;;;;;;5076236;28;20037;-66
2021/12/12 12:40:54;;;;;;;74.10;23.25;;;8.90;99.90;;;;;;5076045;28;20037;-66
2021/12/12 12:43:58;;;;;;;61.97;21.73;;;8.90;99.90;;;;;;5075153;28;20040;-64
2021/12/12 12:47:27;;;;;;;59.73;21.50;;;8.90;99.90;;;;;;5076032;28;20052;-66
2021/12/12 12:50:31;;;;;;;54.20;21.05;;;8.90;99.90;;;;;;5054750;28;20303;-65
2021/12/12 12:53:15;;;;;;;58.00;20.80;;;9.00;99.90;;;;;;5055164;28;20053;-65
2021/12/12 12:56:09;;;;;;;48.40;20.27;;;9.00;99.90;;;;;;5021381;28;20053;-64
2021/12/12 12:58:43;;;;;;;61.95;22.08;;;8.90;99.90;;;;;;5046205;28;20479;-65
2021/12/12 13:01:17;;;;;;;63.28;21.27;;;8.90;99.90;;;;;;5055012;28;20237;-63
2021/12/12 13:04:02;;;;;;;46.10;18.70;;;8.90;99.90;;;;;;5048308;28;20056;-64
2021/12/12 13:07:05;;;;;;;43.85;18.33;;;8.90;99.90;;;;;;5070129;28;20110;-65
2021/12/12 13:09:50;;;;;;;56.33;20.58;;;9.00;99.90;;;;;;5066948;28;20428;-65
2021/12/12 13:12:44;;;;;;;38.25;18.15;;;8.90;99.90;;;;;;5054703;28;20061;-65
2021/12/12 13:15:10;;;;;;;;;;;9.00;99.90;;;;;;5055640;28;20037;-65
2021/12/12 13:17:49;;;;;;;76.97;20.90;;;9.00;99.90;;;;;;5074796;28;19921;-66
2021/12/12 13:20:34;;;;;;;48.20;20.80;;;9.00;99.90;;;;;;5074475;28;20056;-64
2021/12/12 13:23:14;;;;;;;65.47;21.65;;;9.10;99.90;;;;;;5074653;28;20057;-65
2021/12/12 13:25:46;;;;;;;47.60;20.42;;;9.10;99.90;;;;;;5074631;28;20445;-64
2021/12/12 13:28:26;;;;;;;60.67;22.40;;;9.10;99.90;;;;;;5073592;28;20068;-66